Indiana County/Jimmy Stewart Fld/ Airport


Codes: KIDI/IDI
Name: Indiana County/Jimmy Stewart Fld/ Airport
City: Indiana
Country: United States
Elevation: 1405 ft.
Website:
Wikipedia:

Photos at Indiana County/Jimmy Stewart Fld/ Airport


   Photos courtesy of SpottingLog. You can add your own sightings and photos by signing up for a free trial today.



No photos found.

Weather at Indiana County/Jimmy Stewart Fld/ Airport


Time (UTC)DescriptionTempratureWindCloud coverageVisibilityPressureHumidity
15-Apr-2024 18:00Few Clouds18°C7 mph, NW23%10000m1013hPa67%
15-Apr-2024 21:00Few Clouds18°C7 mph, NW16%10000m1013hPa59%
16-Apr-2024 00:00Clear Sky12°C4 mph, N8%10000m1015hPa78%
16-Apr-2024 03:00Clear Sky8°C4 mph, NE1%10000m1018hPa77%
16-Apr-2024 06:00Clear Sky7°C2 mph, SE0%10000m1020hPa79%
16-Apr-2024 09:00Clear Sky7°C2 mph, E0%10000m1020hPa78%
16-Apr-2024 12:00Scattered Clouds9°C2 mph, NE25%10000m1022hPa73%
16-Apr-2024 15:00Broken Clouds16°C0 mph, N63%10000m1021hPa50%
16-Apr-2024 18:00Broken Clouds19°C4 mph, NW82%10000m1019hPa41%
16-Apr-2024 21:00Overcast Clouds19°C4 mph, N99%10000m1018hPa44%
17-Apr-2024 00:00Overcast Clouds14°C2 mph, E96%10000m1019hPa66%
17-Apr-2024 03:00Overcast Clouds13°C4 mph, E100%10000m1019hPa66%
17-Apr-2024 06:00Overcast Clouds13°C4 mph, E100%10000m1017hPa82%
17-Apr-2024 09:00Overcast Clouds14°C7 mph, E100%10000m1016hPa88%
17-Apr-2024 12:00Light Rain13°C7 mph, E100%10000m1016hPa96%
17-Apr-2024 15:00Light Rain16°C9 mph, SE100%10000m1014hPa91%
17-Apr-2024 18:00Overcast Clouds18°C11 mph, SE100%10000m1013hPa83%
17-Apr-2024 21:00Light Rain16°C11 mph, SE100%10000m1011hPa88%
18-Apr-2024 00:00Light Rain13°C11 mph, SE90%2868m1010hPa96%
18-Apr-2024 03:00Moderate Rain14°C11 mph, SE95%2437m1010hPa98%
18-Apr-2024 06:00Moderate Rain15°C7 mph, SW98%10000m1009hPa93%
18-Apr-2024 09:00Light Rain13°C9 mph, SW100%10000m1010hPa95%
18-Apr-2024 12:00Light Rain12°C9 mph, W99%10000m1012hPa94%
18-Apr-2024 15:00Light Rain13°C9 mph, W100%10000m1014hPa90%
18-Apr-2024 18:00Light Rain12°C7 mph, W100%10000m1016hPa91%
18-Apr-2024 21:00Light Rain13°C4 mph, W100%10000m1016hPa86%
19-Apr-2024 00:00Overcast Clouds11°C4 mph, W100%10000m1017hPa90%
19-Apr-2024 03:00Overcast Clouds10°C2 mph, SW100%10000m1017hPa94%
19-Apr-2024 06:00Overcast Clouds9°C2 mph, S100%10000m1016hPa94%
19-Apr-2024 09:00Overcast Clouds8°C2 mph, SE99%10000m1016hPa96%
19-Apr-2024 12:00Overcast Clouds10°C2 mph, E99%10000m1015hPa91%
19-Apr-2024 15:00Overcast Clouds11°C2 mph, S100%10000m1015hPa91%
19-Apr-2024 18:00Moderate Rain12°C7 mph, SW100%10000m1014hPa94%
19-Apr-2024 21:00Light Rain11°C7 mph, NW100%10000m1013hPa96%
20-Apr-2024 00:00Light Rain9°C4 mph, SW100%10000m1014hPa98%
20-Apr-2024 03:00Light Rain7°C9 mph, NW65%10000m1016hPa94%
20-Apr-2024 06:00Scattered Clouds2°C4 mph, W36%10000m1017hPa91%
20-Apr-2024 09:00Clear Sky1°C7 mph, W4%10000m1017hPa90%
20-Apr-2024 12:00Clear Sky2°C9 mph, W4%10000m1018hPa87%
20-Apr-2024 15:00Scattered Clouds6°C13 mph, NW43%10000m1018hPa52%